Time;durP1;ratioP1;P1;durP2;ratioP2;P2;SDS_P1;SDS_P2;PMS_P1;PMS_P2;Temp;Humidity;BMP_temperature;BMP_pressure;BME280_temperature;BME280_humidity;BME280_pressure;Samples;Min_cycle;Max_cycle;Signal;HPM_P1;HPM_P2
2022/12/08 00:00:08;;;;;;;13.93;11.40;;;7.20;43.50;;;;;;10355641;28;20230;-69
2022/12/08 00:10:32;;;;;;;12.40;10.47;;;7.10;43.60;;;;;;10364100;28;20238;-70
2022/12/08 00:15:52;;;;;;;12.73;9.90;;;7.10;43.70;;;;;;10361199;28;20225;-70
2022/12/08 00:20:56;;;;;;;10.37;8.70;;;7.10;43.60;;;;;;10354599;28;20241;-70
2022/12/08 00:26:03;;;;;;;9.53;8.57;;;7.10;43.40;;;;;;10365202;28;20241;-69
2022/12/08 00:31:11;;;;;;;8.83;7.93;;;7.10;43.40;;;;;;10358760;28;20245;-70
2022/12/08 00:36:14;;;;;;;8.87;7.97;;;7.00;43.40;;;;;;10372357;28;20256;-71
2022/12/08 00:42:10;;;;;;;11.57;8.83;;;7.00;43.60;;;;;;10357843;28;20238;-69
2022/12/08 00:46:45;;;;;;;8.00;7.17;;;7.00;43.70;;;;;;10356415;28;20230;-70
2022/12/08 00:51:48;;;;;;;8.33;7.53;;;7.00;43.40;;;;;;10354588;28;20239;-69
2022/12/08 00:56:51;;;;;;;9.73;7.67;;;6.90;43.40;;;;;;10355129;28;20226;-69
2022/12/08 01:01:56;;;;;;;7.57;6.87;;;6.80;43.60;;;;;;10350067;28;20738;-69
2022/12/08 01:06:59;;;;;;;8.50;7.70;;;6.80;43.60;;;;;;10355717;28;20603;-69
2022/12/08 01:12:02;;;;;;;8.93;8.03;;;6.80;43.40;;;;;;10351519;28;20230;-70
2022/12/08 01:17:07;;;;;;;9.80;7.70;;;6.80;43.30;;;;;;10351944;28;20621;-69
2022/12/08 01:22:10;;;;;;;8.37;7.57;;;6.80;42.90;;;;;;10352345;28;20234;-69
2022/12/08 01:27:15;;;;;;;9.10;8.20;;;6.70;43.00;;;;;;10346777;28;20284;-69
2022/12/08 01:32:20;;;;;;;8.80;8.00;;;6.70;43.00;;;;;;10352729;28;20234;-69
2022/12/08 01:37:23;;;;;;;9.40;8.40;;;6.60;42.60;;;;;;10354923;28;20568;-68
2022/12/08 01:42:26;;;;;;;8.80;7.73;;;6.50;42.60;;;;;;10343358;28;20241;-69
2022/12/08 01:47:36;;;;;;;9.10;8.17;;;6.40;42.70;;;;;;10352883;28;20222;-69
2022/12/08 01:52:42;;;;;;;8.27;7.43;;;6.30;42.70;;;;;;10347459;28;20301;-69
2022/12/08 01:57:48;;;;;;;8.30;7.33;;;6.30;42.90;;;;;;10349838;28;20234;-69
2022/12/08 02:02:58;;;;;;;7.80;7.10;;;6.20;42.80;;;;;;10355460;28;20629;-68
2022/12/08 02:08:05;;;;;;;8.57;7.77;;;6.20;42.50;;;;;;10346378;28;20215;-68
2022/12/08 02:13:16;;;;;;;7.77;7.07;;;6.10;42.60;;;;;;10358025;28;20694;-68
2022/12/08 02:18:38;;;;;;;8.00;7.20;;;6.10;42.70;;;;;;10357708;28;21028;-68
2022/12/08 02:23:49;;;;;;;7.77;6.97;;;6.10;42.50;;;;;;10355349;28;20230;-68
2022/12/08 02:29:18;;;;;;;7.17;6.47;;;6.00;42.50;;;;;;10359807;28;20276;-67
2022/12/08 02:34:29;;;;;;;7.73;6.77;;;6.10;42.40;;;;;;10356019;28;20693;-68
2022/12/08 02:39:42;;;;;;;7.83;7.03;;;6.00;42.40;;;;;;10354355;28;20238;-68
2022/12/08 02:44:51;;;;;;;8.63;6.93;;;6.00;42.40;;;;;;10357796;28;20222;-70
2022/12/08 02:49:57;;;;;;;7.60;6.90;;;6.00;42.60;;;;;;10355629;28;20232;-70
2022/12/08 02:55:06;;;;;;;7.00;6.30;;;6.00;42.50;;;;;;10358857;28;20234;-69
2022/12/08 03:00:13;;;;;;;7.63;6.93;;;5.90;42.30;;;;;;10362451;28;20233;-69
2022/12/08 03:05:37;;;;;;;7.87;6.97;;;5.90;42.40;;;;;;10381064;28;20222;-69
2022/12/08 03:10:46;;;;;;;7.67;6.97;;;5.80;42.00;;;;;;10357753;28;20234;-70
2022/12/08 03:15:52;;;;;;;7.90;7.10;;;5.80;42.30;;;;;;10357261;28;20989;-71
2022/12/08 03:20:57;;;;;;;6.67;6.07;;;5.80;42.50;;;;;;10355227;28;20277;-71
2022/12/08 03:26:07;;;;;;;8.03;7.23;;;5.70;42.50;;;;;;10356488;28;20215;-71
2022/12/08 03:31:13;;;;;;;8.00;7.30;;;5.80;43.20;;;;;;10360128;28;20227;-71
2022/12/08 03:36:19;;;;;;;7.50;6.73;;;5.70;42.50;;;;;;10360465;28;20308;-71
2022/12/08 03:41:23;;;;;;;8.73;7.87;;;5.70;42.40;;;;;;10354942;28;20642;-71
2022/12/08 03:46:28;;;;;;;8.40;7.60;;;5.60;42.20;;;;;;10349351;28;20264;-70
2022/12/08 03:51:32;;;;;;;10.03;7.43;;;5.50;42.10;;;;;;10365593;28;20230;-69
2022/12/08 03:56:37;;;;;;;7.77;6.67;;;5.40;42.40;;;;;;10375485;28;20236;-71
2022/12/08 04:01:40;;;;;;;9.03;7.87;;;5.30;42.60;;;;;;10361154;28;20234;-70
2022/12/08 04:06:46;;;;;;;8.20;7.40;;;5.20;42.90;;;;;;10374726;28;20702;-70
2022/12/08 04:11:49;;;;;;;7.90;7.13;;;5.20;42.90;;;;;;10372137;28;20226;-70
2022/12/08 04:16:52;;;;;;;8.63;7.83;;;5.10;42.80;;;;;;10376279;28;20273;-70
2022/12/08 04:21:56;;;;;;;9.37;8.30;;;5.00;43.20;;;;;;10370190;28;20226;-70
2022/12/08 04:27:00;;;;;;;8.80;7.90;;;5.00;43.60;;;;;;10367458;28;20243;-70
2022/12/08 04:32:03;;;;;;;8.80;7.90;;;5.10;43.70;;;;;;10370210;28;20222;-70
2022/12/08 04:37:08;;;;;;;8.53;7.73;;;5.10;43.80;;;;;;10368339;28;20709;-71
2022/12/08 04:42:11;;;;;;;8.10;7.23;;;5.20;43.70;;;;;;10356919;28;20598;-71
2022/12/08 04:47:14;;;;;;;7.50;6.70;;;5.20;43.60;;;;;;10366141;28;20219;-71
2022/12/08 04:52:19;;;;;;;9.77;8.00;;;5.20;43.60;;;;;;10357022;28;20230;-69
2022/12/08 04:57:22;;;;;;;7.73;6.77;;;5.30;43.70;;;;;;10355506;28;20919;-68
2022/12/08 05:02:25;;;;;;;9.20;7.97;;;5.30;43.60;;;;;;10356081;28;20709;-69
2022/12/08 05:07:30;;;;;;;8.77;7.87;;;5.40;43.70;;;;;;10355120;28;20617;-69
2022/12/08 05:12:33;;;;;;;10.20;8.07;;;5.40;43.70;;;;;;10361832;28;20241;-70
2022/12/08 05:17:37;;;;;;;9.83;8.23;;;5.40;43.80;;;;;;10362680;28;20222;-70
2022/12/08 05:22:41;;;;;;;8.30;7.50;;;5.40;43.40;;;;;;10360883;28;20242;-71
2022/12/08 05:27:45;;;;;;;9.37;8.47;;;5.40;43.60;;;;;;10358559;28;20230;-70
2022/12/08 05:32:48;;;;;;;10.10;9.10;;;5.40;43.60;;;;;;10361312;28;20230;-71
2022/12/08 05:37:53;;;;;;;10.50;9.40;;;5.40;43.70;;;;;;10368428;28;20807;-71
2022/12/08 05:42:56;;;;;;;11.97;9.93;;;5.40;43.80;;;;;;10359529;28;20233;-71
2022/12/08 05:47:59;;;;;;;11.27;10.07;;;5.40;43.80;;;;;;10361823;28;20218;-71
2022/12/08 05:53:04;;;;;;;10.70;9.60;;;5.40;43.80;;;;;;10360952;28;20233;-71
2022/12/08 05:58:11;;;;;;;11.23;9.73;;;5.50;43.90;;;;;;10370298;28;20260;-70
2022/12/08 06:03:18;;;;;;;13.17;10.80;;;5.50;43.80;;;;;;10363565;28;20225;-70
2022/12/08 06:08:23;;;;;;;10.67;9.53;;;5.50;43.70;;;;;;10381047;28;20317;-69
2022/12/08 06:13:26;;;;;;;10.63;9.03;;;5.50;43.60;;;;;;10380358;28;20919;-70
2022/12/08 06:18:30;;;;;;;10.03;8.90;;;5.50;43.50;;;;;;10358734;28;20583;-69
2022/12/08 06:23:36;;;;;;;9.57;6.63;;;5.50;43.20;;;;;;10358219;28;20277;-69
2022/12/08 06:28:41;;;;;;;9.80;8.80;;;5.50;44.90;;;;;;10356801;28;20645;-70
2022/12/08 06:33:45;;;;;;;9.47;8.57;;;5.60;45.00;;;;;;10357530;28;20272;-70
2022/12/08 06:38:50;;;;;;;8.90;8.00;;;5.60;44.00;;;;;;10353193;28;20230;-70
2022/12/08 06:43:56;;;;;;;8.83;7.93;;;5.60;43.50;;;;;;10356325;28;20227;-70
2022/12/08 06:49:07;;;;;;;8.83;7.93;;;5.60;43.20;;;;;;10377383;23;20230;-73
2022/12/08 06:54:11;;;;;;;8.90;7.20;;;5.60;43.20;;;;;;10370517;28;20229;-74
2022/12/08 06:59:16;;;;;;;7.50;6.73;;;5.50;43.10;;;;;;10374576;28;20226;-74
2022/12/08 07:04:19;;;;;;;7.93;7.07;;;5.50;43.20;;;;;;10375936;28;20245;-74
2022/12/08 07:09:24;;;;;;;9.07;7.87;;;5.50;43.10;;;;;;10367660;28;20237;-75
2022/12/08 07:14:29;;;;;;;9.53;8.57;;;5.40;43.10;;;;;;10356301;28;20278;-75
2022/12/08 07:19:33;;;;;;;10.40;9.40;;;5.40;43.10;;;;;;10361975;28;20230;-75
2022/12/08 07:24:38;;;;;;;12.33;11.13;;;5.40;42.80;;;;;;10368311;28;20223;-75
2022/12/08 07:29:44;;;;;;;11.93;10.73;;;5.30;42.60;;;;;;10374773;28;20257;-74
2022/12/08 07:34:48;;;;;;;12.37;11.17;;;5.20;42.90;;;;;;10371424;28;20229;-76
2022/12/08 07:39:52;;;;;;;10.50;9.50;;;5.10;42.80;;;;;;10356597;28;20815;-75
2022/12/08 07:44:55;;;;;;;12.47;11.27;;;5.10;42.80;;;;;;10367813;28;20600;-75
2022/12/08 07:49:58;;;;;;;13.60;12.20;;;5.00;42.70;;;;;;10361987;28;20226;-75
2022/12/08 07:55:03;;;;;;;17.43;14.63;;;4.90;42.60;;;;;;10369318;28;20225;-75
2022/12/08 08:00:08;;;;;;;12.37;11.07;;;4.90;42.60;;;;;;10363747;28;20230;-76
2022/12/08 08:05:12;;;;;;;11.93;9.67;;;4.80;42.60;;;;;;10371050;28;20226;-75
2022/12/08 08:10:16;;;;;;;11.67;10.33;;;4.80;43.00;;;;;;10366236;28;20226;-75
2022/12/08 08:15:20;;;;;;;11.50;10.23;;;4.80;43.00;;;;;;10368969;28;20223;-75
2022/12/08 08:20:23;;;;;;;12.10;10.23;;;4.90;43.20;;;;;;10362965;28;20252;-75
2022/12/08 08:25:28;;;;;;;11.60;10.20;;;4.80;43.10;;;;;;10368996;28;20289;-75
2022/12/08 08:30:31;;;;;;;12.90;11.37;;;4.90;43.30;;;;;;10369387;28;20225;-76
2022/12/08 08:35:34;;;;;;;11.73;10.57;;;5.00;43.50;;;;;;10357903;28;20225;-75
2022/12/08 08:40:39;;;;;;;12.87;9.77;;;5.00;43.50;;;;;;10366394;28;20229;-75
2022/12/08 08:45:42;;;;;;;12.03;9.90;;;5.10;43.60;;;;;;10363988;28;20222;-76
2022/12/08 08:50:45;;;;;;;11.67;9.50;;;5.10;43.70;;;;;;10371944;28;20253;-76
2022/12/08 08:55:50;;;;;;;10.13;9.13;;;5.20;43.80;;;;;;10366309;28;20214;-76
2022/12/08 09:00:53;;;;;;;15.03;10.27;;;5.30;44.10;;;;;;10358486;28;20234;-77
2022/12/08 09:05:56;;;;;;;12.50;10.23;;;5.40;44.20;;;;;;10360132;28;20222;-77
2022/12/08 09:11:01;;;;;;;11.97;9.50;;;5.40;44.20;;;;;;10373507;28;20233;-76
2022/12/08 09:16:06;;;;;;;14.30;12.13;;;5.50;44.20;;;;;;10361449;28;20222;-76
2022/12/08 09:21:13;;;;;;;11.63;10.50;;;5.60;44.10;;;;;;10360187;28;20709;-76
2022/12/08 09:26:21;;;;;;;13.30;12.00;;;5.70;44.50;;;;;;10359118;28;20218;-76
2022/12/08 09:31:25;;;;;;;16.00;12.43;;;5.70;44.40;;;;;;10365523;28;20241;-76
2022/12/08 09:36:30;;;;;;;13.43;12.13;;;5.80;44.30;;;;;;10363182;28;20248;-76
2022/12/08 09:41:36;;;;;;;16.47;12.73;;;5.80;44.10;;;;;;10354548;28;20237;-74
2022/12/08 09:46:52;;;;;;;11.73;10.50;;;5.90;44.30;;;;;;10348090;28;20221;-74
2022/12/08 09:51:56;;;;;;;15.33;11.77;;;5.80;44.30;;;;;;10348391;28;20222;-74
2022/12/08 09:57:06;;;;;;;13.13;11.73;;;5.90;44.20;;;;;;10352208;28;20226;-76
2022/12/08 10:02:20;;;;;;;11.90;10.67;;;5.90;44.60;;;;;;10348501;28;20233;-74
2022/12/08 10:07:33;;;;;;;13.37;11.73;;;5.90;44.50;;;;;;10347355;28;20316;-75
2022/12/08 10:12:47;;;;;;;13.37;11.83;;;5.90;45.20;;;;;;10347943;28;20245;-74
2022/12/08 10:17:52;;;;;;;13.37;11.00;;;6.00;44.50;;;;;;10342327;28;20234;-74
2022/12/08 10:23:05;;;;;;;14.63;12.67;;;6.00;44.90;;;;;;10363350;28;20625;-75
2022/12/08 10:28:10;;;;;;;13.83;12.43;;;6.10;44.90;;;;;;10353997;28;20226;-73
2022/12/08 10:33:17;;;;;;;13.73;12.27;;;6.20;44.60;;;;;;10363313;28;20222;-75
2022/12/08 10:38:23;;;;;;;15.37;12.83;;;6.20;44.60;;;;;;10357396;28;20230;-73
2022/12/08 10:43:28;;;;;;;14.20;11.93;;;6.20;44.60;;;;;;10356810;28;20233;-76
2022/12/08 10:48:31;;;;;;;13.47;11.63;;;6.30;44.50;;;;;;10357184;28;20231;-74
2022/12/08 10:53:46;;;;;;;14.47;12.97;;;6.30;44.60;;;;;;10351772;28;20233;-75
2022/12/08 10:59:06;;;;;;;12.83;11.47;;;6.40;44.60;;;;;;10359465;28;20241;-74
2022/12/08 11:04:17;;;;;;;12.90;11.37;;;6.40;44.50;;;;;;10355989;28;20223;-76
2022/12/08 11:09:30;;;;;;;12.77;11.47;;;6.50;44.60;;;;;;10354219;28;20250;-74
2022/12/08 11:14:47;;;;;;;12.07;10.87;;;6.50;44.50;;;;;;10350195;28;20231;-74
2022/12/08 11:19:57;;;;;;;10.30;9.30;;;6.50;44.60;;;;;;10355253;28;20230;-74
2022/12/08 11:25:03;;;;;;;10.63;9.53;;;6.50;44.50;;;;;;10355471;28;20245;-75
2022/12/08 11:30:14;;;;;;;10.57;9.27;;;6.50;44.40;;;;;;10363752;28;20233;-75
2022/12/08 11:35:26;;;;;;;12.10;10.83;;;6.50;44.60;;;;;;10368085;28;20729;-77
2022/12/08 11:40:34;;;;;;;10.20;9.23;;;6.50;44.90;;;;;;10363561;28;20237;-76
2022/12/08 11:45:41;;;;;;;14.73;12.03;;;6.50;44.70;;;;;;10361105;28;20237;-77
2022/12/08 11:50:50;;;;;;;11.87;10.63;;;6.50;44.70;;;;;;10361542;28;20599;-77
2022/12/08 11:55:58;;;;;;;11.87;10.77;;;6.60;44.70;;;;;;10370234;28;20589;-78
2022/12/08 12:01:03;;;;;;;12.13;10.93;;;6.60;44.70;;;;;;10367400;28;20284;-77
2022/12/08 12:06:23;;;;;;;12.80;11.53;;;6.60;44.60;;;;;;10355126;28;20222;-78
2022/12/08 12:12:15;;;;;;;12.03;10.83;;;6.60;44.60;;;;;;10363522;28;20302;-78
2022/12/08 12:17:39;;;;;;;11.60;10.50;;;6.60;44.60;;;;;;10358867;28;20226;-76
2022/12/08 12:22:46;;;;;;;13.13;11.80;;;6.70;44.80;;;;;;10361944;28;20222;-77
2022/12/08 12:27:52;;;;;;;12.50;11.30;;;6.70;44.50;;;;;;10359400;28;20238;-78
2022/12/08 12:33:12;;;;;;;12.17;10.87;;;6.70;44.60;;;;;;10353559;28;20230;-77
2022/12/08 12:44:24;;;;;;;14.20;12.53;;;6.70;44.80;;;;;;10308170;28;20217;-80
2022/12/08 12:50:05;;;;;;;13.63;12.30;;;6.70;44.80;;;;;;10356522;28;20280;-78
2022/12/08 12:55:50;;;;;;;13.37;12.07;;;6.80;44.80;;;;;;10367326;28;20233;-78
2022/12/08 13:01:34;;;;;;;14.00;12.50;;;6.80;44.80;;;;;;10366076;28;20233;-79
2022/12/08 13:06:44;;;;;;;13.67;12.37;;;6.90;44.90;;;;;;10365449;28;20226;-79
2022/12/08 13:11:51;;;;;;;13.87;12.03;;;6.90;44.80;;;;;;10346302;28;20238;-78
2022/12/08 13:16:56;;;;;;;14.13;12.53;;;7.00;44.90;;;;;;10358825;28;20686;-80
2022/12/08 13:22:01;;;;;;;13.03;11.87;;;7.00;44.90;;;;;;10367708;28;20242;-77
2022/12/08 13:27:32;;;;;;;12.27;11.13;;;7.10;44.90;;;;;;10358226;28;20225;-76
2022/12/08 13:32:55;;;;;;;14.17;12.77;;;7.10;45.80;;;;;;10356032;28;20230;-76
2022/12/08 13:38:25;;;;;;;15.10;13.53;;;7.10;45.50;;;;;;10357964;28;20345;-77
2022/12/08 13:43:37;;;;;;;14.80;13.40;;;7.20;45.10;;;;;;10367826;28;20222;-77
2022/12/08 13:49:02;;;;;;;15.07;13.57;;;7.20;45.00;;;;;;10366992;28;20252;-77
2022/12/08 13:54:31;;;;;;;13.60;12.30;;;7.20;44.60;;;;;;10366442;28;20232;-77
2022/12/08 13:59:59;;;;;;;15.73;14.13;;;7.20;45.00;;;;;;10373215;28;20694;-83
2022/12/08 14:05:04;;;;;;;16.10;14.40;;;7.20;44.80;;;;;;10368063;28;20734;-79
2022/12/08 14:10:30;;;;;;;18.30;16.47;;;7.20;44.50;;;;;;10372192;28;20709;-78
2022/12/08 14:15:34;;;;;;;15.17;13.50;;;7.20;44.60;;;;;;10413324;28;20679;-81
2022/12/08 14:20:41;;;;;;;15.97;13.27;;;7.20;44.60;;;;;;10368642;28;20235;-78
2022/12/08 14:26:07;;;;;;;15.33;13.73;;;7.20;44.60;;;;;;10374315;28;20860;-78
2022/12/08 14:31:12;;;;;;;16.57;14.87;;;7.20;44.60;;;;;;10370795;28;20600;-77
2022/12/08 14:36:16;;;;;;;16.50;14.67;;;7.10;44.40;;;;;;10367368;28;20246;-78
2022/12/08 14:41:26;;;;;;;15.20;13.60;;;7.10;44.40;;;;;;10392758;28;20242;-79
2022/12/08 14:46:29;;;;;;;17.10;15.40;;;7.10;45.00;;;;;;10404943;28;20218;-80
2022/12/08 14:51:33;;;;;;;15.23;13.67;;;7.10;44.70;;;;;;10361589;28;20636;-79
2022/12/08 14:56:40;;;;;;;16.77;14.43;;;7.10;44.50;;;;;;10375829;28;20423;-81
2022/12/08 15:01:44;;;;;;;16.80;14.67;;;7.10;44.50;;;;;;10366806;28;20226;-81
2022/12/08 15:06:53;;;;;;;14.47;12.97;;;7.10;44.50;;;;;;10366033;28;20268;-81
2022/12/08 15:12:03;;;;;;;14.07;11.70;;;7.10;44.40;;;;;;10371463;28;20226;-78
2022/12/08 15:17:28;;;;;;;15.83;14.17;;;7.10;45.80;;;;;;10376959;28;20226;-80
2022/12/08 15:22:32;;;;;;;14.33;12.83;;;7.20;46.60;;;;;;10376474;28;20236;-82
2022/12/08 15:27:46;;;;;;;13.03;11.70;;;7.30;45.60;;;;;;10370128;28;20233;-82
2022/12/08 15:32:54;;;;;;;15.43;13.83;;;7.30;45.10;;;;;;10377027;28;20233;-83
2022/12/08 15:37:58;;;;;;;15.83;14.13;;;7.30;44.90;;;;;;10370245;28;20222;-82
2022/12/08 15:43:03;;;;;;;14.43;12.97;;;7.30;44.60;;;;;;10376281;28;20277;-82
2022/12/08 15:48:07;;;;;;;16.50;14.80;;;7.30;45.40;;;;;;10375549;28;20223;-79
2022/12/08 15:53:11;;;;;;;16.40;14.67;;;7.30;44.60;;;;;;10364146;28;20314;-78
2022/12/08 15:58:21;;;;;;;14.70;13.17;;;7.20;44.10;;;;;;10361652;28;20223;-78
2022/12/08 16:03:44;;;;;;;15.13;13.53;;;7.20;44.10;;;;;;10357194;28;20601;-79
2022/12/08 16:09:16;;;;;;;12.40;10.83;;;7.10;44.10;;;;;;10362681;28;20273;-79
2022/12/08 16:14:21;;;;;;;16.00;14.10;;;7.00;43.80;;;;;;10369557;28;20854;-81
2022/12/08 16:19:49;;;;;;;14.20;12.70;;;6.90;43.90;;;;;;10361145;28;20230;-81
2022/12/08 16:24:53;;;;;;;17.07;15.27;;;6.90;44.20;;;;;;10383339;28;20571;-79
2022/12/08 16:29:58;;;;;;;18.30;16.20;;;6.80;44.10;;;;;;10364082;23;20864;-70
2022/12/08 16:35:02;;;;;;;18.17;16.27;;;6.80;43.90;;;;;;10321626;28;20238;-71
2022/12/08 16:40:07;;;;;;;24.77;22.20;;;6.70;43.90;;;;;;10283966;28;20239;-71
2022/12/08 16:45:14;;;;;;;19.03;17.03;;;6.60;44.00;;;;;;10253760;28;21032;-71
2022/12/08 16:50:19;;;;;;;35.10;31.27;;;6.60;44.00;;;;;;10256780;28;20235;-71
2022/12/08 16:55:22;;;;;;;23.00;20.53;;;6.50;43.90;;;;;;10266417;28;20232;-71
2022/12/08 17:00:29;;;;;;;23.17;20.70;;;6.50;44.10;;;;;;10268027;28;20287;-71
2022/12/08 17:05:32;;;;;;;18.07;16.17;;;6.50;44.20;;;;;;10255148;28;20235;-71
2022/12/08 17:10:39;;;;;;;16.50;14.80;;;6.50;44.20;;;;;;10259645;28;20294;-70
2022/12/08 17:15:43;;;;;;;15.63;14.03;;;6.50;43.90;;;;;;10264801;28;20227;-70
2022/12/08 17:20:47;;;;;;;14.83;13.40;;;6.50;43.90;;;;;;10268696;28;20512;-70
2022/12/08 17:25:58;;;;;;;13.37;11.97;;;6.50;43.90;;;;;;10267849;28;20241;-71
2022/12/08 17:31:09;;;;;;;14.00;12.60;;;6.40;44.10;;;;;;10275981;28;20228;-71
2022/12/08 17:36:14;;;;;;;13.37;12.07;;;6.40;44.10;;;;;;10273976;28;20228;-71
2022/12/08 17:41:17;;;;;;;15.67;12.50;;;6.40;44.00;;;;;;10269082;28;20238;-71
2022/12/08 17:46:23;;;;;;;14.77;13.20;;;6.40;44.10;;;;;;10268195;28;20717;-70
2022/12/08 17:51:26;;;;;;;14.33;12.83;;;6.40;44.10;;;;;;10278887;28;20600;-70
2022/12/08 17:56:29;;;;;;;14.10;12.53;;;6.40;43.90;;;;;;10263393;28;20227;-70
2022/12/08 18:01:34;;;;;;;17.17;11.93;;;6.40;44.10;;;;;;10273636;28;20314;-70
2022/12/08 18:06:38;;;;;;;14.37;12.77;;;6.40;44.30;;;;;;10275286;28;20227;-70
2022/12/08 18:11:43;;;;;;;17.00;15.07;;;6.40;44.40;;;;;;10259623;28;20232;-70
2022/12/08 18:16:48;;;;;;;17.47;15.00;;;6.40;44.40;;;;;;10258752;28;20649;-70
2022/12/08 18:21:51;;;;;;;16.50;14.80;;;6.40;44.00;;;;;;10255463;28;20224;-70
2022/12/08 18:26:55;;;;;;;17.53;15.33;;;6.40;44.20;;;;;;10279887;28;20228;-70
2022/12/08 18:31:59;;;;;;;17.00;15.20;;;6.50;44.10;;;;;;10271543;28;20220;-70
2022/12/08 18:37:03;;;;;;;16.40;14.53;;;6.50;44.30;;;;;;10265352;28;20219;-70
2022/12/08 18:42:21;;;;;;;17.90;16.00;;;6.50;44.00;;;;;;10261856;28;20236;-70
2022/12/08 18:47:26;;;;;;;18.37;16.37;;;6.50;44.20;;;;;;10273261;28;20245;-70
2022/12/08 18:52:29;;;;;;;16.23;14.50;;;6.50;44.00;;;;;;10277760;28;20224;-71
2022/12/08 18:57:34;;;;;;;14.87;13.17;;;6.50;44.10;;;;;;10278128;28;20582;-71
2022/12/08 19:02:39;;;;;;;20.87;15.77;;;6.50;44.40;;;;;;10277467;28;20238;-70
2022/12/08 19:07:44;;;;;;;16.20;14.50;;;6.50;44.20;;;;;;10273157;28;20224;-70
2022/12/08 19:12:49;;;;;;;16.13;14.53;;;6.50;44.00;;;;;;10279594;28;20224;-71
2022/12/08 19:17:54;;;;;;;16.83;15.10;;;6.50;44.20;;;;;;10277042;28;20234;-71
2022/12/08 19:22:57;;;;;;;15.87;14.23;;;6.50;44.00;;;;;;10276221;28;20228;-71
2022/12/08 19:28:00;;;;;;;15.77;14.27;;;6.50;44.10;;;;;;10281320;28;20756;-70
2022/12/08 19:33:05;;;;;;;16.10;14.50;;;6.40;43.90;;;;;;10287237;28;20243;-71
2022/12/08 19:38:08;;;;;;;16.30;14.70;;;6.40;43.90;;;;;;10281039;28;20228;-71
2022/12/08 19:48:41;;;;;;;17.63;15.87;;;6.40;43.90;;;;;;10243692;28;20576;-71
2022/12/08 19:53:44;;;;;;;55.73;36.37;;;6.30;43.80;;;;;;10279779;28;20230;-70
2022/12/08 19:58:50;;;;;;;21.67;17.67;;;6.20;43.70;;;;;;10270388;28;20715;-70
2022/12/08 20:03:54;;;;;;;35.83;16.43;;;6.20;43.70;;;;;;10265789;28;20259;-71
2022/12/08 20:08:58;;;;;;;21.80;16.00;;;6.10;43.90;;;;;;10271304;28;20743;-71
2022/12/08 20:14:01;;;;;;;16.30;14.60;;;6.10;43.90;;;;;;10266699;28;20316;-71
2022/12/08 20:19:06;;;;;;;17.90;15.67;;;6.00;44.00;;;;;;10275472;28;20234;-71
2022/12/08 20:24:09;;;;;;;17.80;15.90;;;6.00;44.20;;;;;;10285847;28;20231;-71
2022/12/08 20:29:15;;;;;;;24.53;16.53;;;6.00;44.10;;;;;;10276342;28;20803;-69
2022/12/08 20:34:20;;;;;;;20.80;15.80;;;6.00;44.10;;;;;;10268268;28;20235;-68
2022/12/08 20:39:23;;;;;;;17.23;14.73;;;6.00;44.10;;;;;;10275198;28;20242;-68
2022/12/08 20:44:28;;;;;;;14.67;13.27;;;5.90;44.20;;;;;;10278046;28;20777;-68
2022/12/08 20:49:32;;;;;;;22.67;17.23;;;5.90;44.40;;;;;;10282695;28;20231;-68
2022/12/08 20:54:37;;;;;;;15.97;14.27;;;5.90;44.70;;;;;;10278135;28;21754;-69
2022/12/08 20:59:40;;;;;;;15.77;14.17;;;5.90;44.60;;;;;;10270080;28;20854;-68
2022/12/08 21:04:45;;;;;;;15.47;13.87;;;6.00;45.10;;;;;;10276144;28;20227;-69
2022/12/08 21:09:48;;;;;;;17.10;14.93;;;6.00;45.50;;;;;;10270924;28;20258;-68
2022/12/08 21:14:52;;;;;;;18.43;15.50;;;6.00;45.10;;;;;;10266764;28;20223;-69
2022/12/08 21:19:56;;;;;;;17.73;15.83;;;6.10;44.90;;;;;;10268590;28;20278;-68
2022/12/08 21:25:00;;;;;;;24.70;16.63;;;6.10;44.70;;;;;;10267835;28;20228;-69
2022/12/08 21:30:03;;;;;;;18.53;15.87;;;6.10;44.60;;;;;;10274773;28;20277;-69
2022/12/08 21:35:10;;;;;;;19.20;17.13;;;6.10;44.50;;;;;;10275369;28;20227;-69
2022/12/08 21:40:14;;;;;;;22.23;17.43;;;6.10;44.40;;;;;;10270801;28;20255;-69
2022/12/08 21:45:19;;;;;;;44.40;18.27;;;6.10;44.40;;;;;;10282989;28;20240;-68
2022/12/08 21:50:24;;;;;;;22.50;19.10;;;6.00;44.40;;;;;;10271808;28;20232;-68
2022/12/08 21:55:27;;;;;;;21.27;16.37;;;6.00;44.40;;;;;;10277934;28;20228;-68
2022/12/08 22:00:30;;;;;;;18.93;16.40;;;5.90;44.40;;;;;;10261966;28;20227;-69
2022/12/08 22:05:35;;;;;;;18.17;15.87;;;5.90;44.50;;;;;;10266382;28;20228;-69
2022/12/08 22:10:39;;;;;;;18.67;16.17;;;5.90;44.80;;;;;;10279158;28;20741;-69
2022/12/08 22:15:42;;;;;;;17.37;15.53;;;5.90;44.70;;;;;;10279117;28;20250;-69
2022/12/08 22:20:47;;;;;;;18.17;16.23;;;5.90;44.70;;;;;;10289805;28;20238;-69
2022/12/08 22:25:56;;;;;;;16.63;14.70;;;5.80;44.60;;;;;;10294916;28;20282;-69
2022/12/08 22:31:00;;;;;;;23.17;17.03;;;5.80;44.80;;;;;;10276447;28;20247;-69
2022/12/08 22:36:05;;;;;;;17.40;14.67;;;5.80;44.70;;;;;;10284049;28;20223;-69
2022/12/08 22:41:13;;;;;;;16.93;15.07;;;5.90;44.80;;;;;;10290201;28;20817;-69
2022/12/08 22:46:18;;;;;;;16.73;14.40;;;5.90;44.90;;;;;;10278628;28;20724;-69
2022/12/08 22:51:23;;;;;;;21.73;16.77;;;5.90;44.90;;;;;;10276418;28;20306;-69
2022/12/08 22:56:26;;;;;;;18.73;16.63;;;5.90;44.70;;;;;;10286296;28;20604;-69
2022/12/08 23:01:31;;;;;;;20.13;17.40;;;6.00;44.70;;;;;;10272275;28;20595;-69
2022/12/08 23:06:36;;;;;;;15.70;13.80;;;5.90;44.50;;;;;;10278882;28;20270;-69
2022/12/08 23:11:39;;;;;;;21.07;16.77;;;5.90;44.60;;;;;;10278373;28;20227;-69
2022/12/08 23:16:42;;;;;;;21.93;17.13;;;5.90;44.60;;;;;;10290520;28;20234;-69
2022/12/08 23:21:47;;;;;;;22.10;18.83;;;5.90;44.50;;;;;;10282620;28;20655;-69
2022/12/08 23:26:50;;;;;;;21.67;17.90;;;5.90;44.60;;;;;;10274534;28;20237;-69
2022/12/08 23:31:54;;;;;;;19.97;17.37;;;5.90;44.50;;;;;;10277326;28;20779;-69
2022/12/08 23:36:59;;;;;;;18.27;16.03;;;5.90;44.60;;;;;;10280786;28;20223;-69
2022/12/08 23:42:02;;;;;;;18.53;15.50;;;5.90;44.70;;;;;;10274301;28;20710;-69
2022/12/08 23:47:06;;;;;;;20.63;16.70;;;5.90;44.50;;;;;;10276592;28;20296;-69
2022/12/08 23:52:13;;;;;;;16.47;14.67;;;5.90;44.60;;;;;;10274518;28;20215;-69
2022/12/08 23:57:16;;;;;;;14.87;13.27;;;5.80;44.60;;;;;;10284992;28;20598;-69
